Time;durP1;ratioP1;P1;durP2;ratioP2;P2;SDS_P1;SDS_P2;PMS_P1;PMS_P2;Temp;Humidity;BMP_temperature;BMP_pressure;BME280_temperature;BME280_humidity;BME280_pressure;Samples;Min_cycle;Max_cycle;Signal;HPM_P1;HPM_P2
2024/03/03 00:02:17;;;;;;;35.33;16.23;;;;;;;8.70;100.00;99480.47;5183556;28;20060;-74
2024/03/03 00:04:47;;;;;;;32.80;16.63;;;;;;;8.69;100.00;99472.75;5187748;28;20304;-74
2024/03/03 00:07:18;;;;;;;33.38;16.58;;;;;;;8.53;100.00;99471.75;5191550;28;20022;-74
2024/03/03 00:09:48;;;;;;;31.83;15.45;;;;;;;8.47;100.00;99470.25;5185655;28;20142;-74
2024/03/03 00:12:18;;;;;;;32.20;16.00;;;;;;;8.58;100.00;99470.59;5181535;28;20037;-74
2024/03/03 00:14:49;;;;;;;34.92;16.30;;;;;;;8.63;100.00;99471.25;5188065;28;20079;-74
2024/03/03 00:17:19;;;;;;;29.60;15.30;;;;;;;8.56;100.00;99471.59;5185287;28;20025;-73
2024/03/03 00:19:50;;;;;;;30.90;15.77;;;;;;;8.49;100.00;99475.38;5180163;28;20494;-74
2024/03/03 00:22:20;;;;;;;30.58;15.80;;;;;;;8.47;100.00;99483.28;5191349;28;20029;-74
2024/03/03 00:24:50;;;;;;;32.45;15.32;;;;;;;8.37;100.00;99471.56;5191513;28;20048;-74
2024/03/03 00:27:21;;;;;;;27.98;14.32;;;;;;;8.42;100.00;99472.19;5185588;28;20032;-73
2024/03/03 00:29:51;;;;;;;31.50;14.63;;;;;;;8.14;100.00;99469.09;5189607;28;20657;-74
2024/03/03 00:32:22;;;;;;;31.40;14.20;;;;;;;7.99;100.00;99476.72;5184969;28;20482;-74
2024/03/03 00:34:52;;;;;;;31.42;14.60;;;;;;;7.96;100.00;99476.84;5186839;28;20158;-74
2024/03/03 00:37:22;;;;;;;27.13;13.98;;;;;;;7.90;100.00;99475.34;5191919;28;20168;-74
2024/03/03 00:39:53;;;;;;;33.45;15.50;;;;;;;7.76;100.00;99477.72;5195627;28;20036;-74
2024/03/03 00:42:23;;;;;;;28.75;14.63;;;;;;;7.73;100.00;99469.19;5185556;28;20029;-74
2024/03/03 00:44:54;;;;;;;36.13;15.85;;;;;;;7.87;100.00;99470.28;5171192;28;20218;-74
2024/03/03 00:47:24;;;;;;;30.33;14.75;;;;;;;7.80;100.00;99462.78;5181117;28;20485;-74
2024/03/03 00:49:55;;;;;;;31.05;16.00;;;;;;;7.70;100.00;99467.53;5180203;28;20497;-74
2024/03/03 00:52:25;;;;;;;31.58;15.52;;;;;;;7.76;100.00;99454.31;5177990;28;20112;-74
2024/03/03 00:54:57;;;;;;;31.63;14.88;;;;;;;7.71;100.00;99458.00;5183968;28;20100;-74
2024/03/03 00:57:27;;;;;;;29.35;13.80;;;;;;;7.75;100.00;99455.22;5186053;28;20025;-74
2024/03/03 00:59:58;;;;;;;32.03;15.07;;;;;;;7.62;100.00;99455.75;5165860;28;20033;-74
2024/03/03 01:02:29;;;;;;;28.15;15.00;;;;;;;7.53;100.00;99457.00;5182824;28;20604;-74
2024/03/03 01:04:59;;;;;;;32.08;15.68;;;;;;;7.40;100.00;99452.38;5194080;28;20542;-74
2024/03/03 01:07:29;;;;;;;35.80;15.02;;;;;;;7.43;100.00;99447.91;5187067;28;20033;-74
2024/03/03 01:10:00;;;;;;;33.10;15.73;;;;;;;7.51;100.00;99450.19;5192313;28;20029;-74
2024/03/03 01:12:30;;;;;;;31.95;15.27;;;;;;;7.36;100.00;99445.59;5190345;28;20457;-74
2024/03/03 01:15:01;;;;;;;29.00;15.18;;;;;;;7.26;100.00;99449.47;5191509;28;20086;-74
2024/03/03 01:17:31;;;;;;;31.85;15.35;;;;;;;7.21;100.00;99455.75;5194979;28;20112;-74
2024/03/03 01:20:01;;;;;;;36.22;15.63;;;;;;;7.25;100.00;99452.16;5178706;28;20045;-74
2024/03/03 01:22:32;;;;;;;36.85;17.67;;;;;;;7.32;100.00;99450.06;5179623;28;20037;-74
2024/03/03 01:25:03;;;;;;;39.80;17.27;;;;;;;7.29;100.00;99449.34;5179277;28;20045;-74
2024/03/03 01:27:34;;;;;;;36.85;16.33;;;;;;;7.30;100.00;99446.69;5183639;28;20446;-74
2024/03/03 01:30:05;;;;;;;37.60;18.00;;;;;;;7.49;100.00;99439.84;5184407;28;20038;-74
2024/03/03 01:32:35;;;;;;;37.78;18.77;;;;;;;7.41;100.00;99461.84;5202296;28;20079;-74
2024/03/03 01:35:06;;;;;;;39.40;17.55;;;;;;;7.48;100.00;99453.75;5191813;28;20033;-74
2024/03/03 01:37:36;;;;;;;40.15;18.33;;;;;;;7.48;100.00;99450.28;5193844;28;20084;-74
2024/03/03 01:40:07;;;;;;;37.60;18.67;;;;;;;7.57;100.00;99448.19;5195320;28;20356;-74
2024/03/03 01:42:38;;;;;;;40.15;17.92;;;;;;;7.50;100.00;99449.31;5190859;28;20426;-74
2024/03/03 01:45:21;;;;;;;42.72;19.42;;;;;;;7.40;100.00;99455.81;5173104;28;20037;-74
2024/03/03 01:47:52;;;;;;;39.53;18.58;;;;;;;7.43;100.00;99449.63;5178240;28;20025;-74
2024/03/03 01:50:24;;;;;;;45.78;19.05;;;;;;;7.47;100.00;99452.06;5179539;28;20022;-73
2024/03/03 01:52:54;;;;;;;39.00;18.85;;;;;;;7.44;100.00;99459.13;5178426;28;20023;-74
2024/03/03 01:55:25;;;;;;;38.10;18.33;;;;;;;7.44;100.00;99456.53;5186224;28;20399;-74
2024/03/03 01:58:02;;;;;;;39.70;18.85;;;;;;;7.39;100.00;99459.31;5172116;28;20021;-74
2024/03/03 02:00:36;;;;;;;40.15;18.20;;;;;;;7.37;100.00;99462.88;5178830;28;20174;-73
2024/03/03 02:03:08;;;;;;;40.90;18.70;;;;;;;7.37;100.00;99458.53;5177004;28;20057;-74
2024/03/03 02:05:39;;;;;;;38.83;18.85;;;;;;;7.38;100.00;99459.38;5184588;28;20029;-74
2024/03/03 02:08:10;;;;;;;42.22;18.42;;;;;;;7.34;100.00;99456.06;5184246;28;20103;-73
2024/03/03 02:10:41;;;;;;;39.60;18.50;;;;;;;7.29;100.00;99445.00;5182111;28;20439;-74
2024/03/03 02:13:11;;;;;;;39.00;17.90;;;;;;;7.20;100.00;99443.66;5187711;28;20403;-74
2024/03/03 02:15:41;;;;;;;40.50;18.75;;;;;;;7.20;100.00;99447.13;5193473;28;20029;-74
2024/03/03 02:18:12;;;;;;;41.97;18.85;;;;;;;7.19;100.00;99449.78;5187641;28;20048;-74
2024/03/03 02:20:42;;;;;;;39.88;17.80;;;;;;;7.05;100.00;99458.13;5191028;28;20075;-74
2024/03/03 02:23:13;;;;;;;30.92;15.85;;;;;;;6.75;100.00;99456.72;5185666;28;20030;-74
2024/03/03 02:25:43;;;;;;;36.50;16.58;;;;;;;6.52;100.00;99459.34;5192769;28;20041;-74
2024/03/03 02:28:14;;;;;;;33.35;16.35;;;;;;;6.35;100.00;99456.50;5196318;28;20649;-74
2024/03/03 02:30:44;;;;;;;31.92;15.85;;;;;;;6.13;100.00;99454.75;5175032;28;20158;-74
2024/03/03 02:33:15;;;;;;;34.92;16.05;;;;;;;6.16;100.00;99459.81;5183338;28;20065;-74
2024/03/03 02:35:45;;;;;;;40.47;19.08;;;;;;;6.49;100.00;99458.59;5180431;28;20143;-74
2024/03/03 02:38:16;;;;;;;44.92;19.55;;;;;;;6.50;100.00;99455.09;5187334;28;20038;-74
2024/03/03 02:40:46;;;;;;;41.15;18.38;;;;;;;6.55;100.00;99453.16;5185910;28;20073;-74
2024/03/03 02:43:16;;;;;;;44.90;18.95;;;;;;;6.54;100.00;99454.94;5185484;28;20502;-74
2024/03/03 02:45:47;;;;;;;42.60;19.95;;;;;;;6.63;100.00;99457.16;5183269;28;20035;-74
2024/03/03 02:48:20;;;;;;;41.85;18.65;;;;;;;6.49;100.00;99461.19;5186477;28;20061;-74
2024/03/03 02:50:51;;;;;;;37.35;18.13;;;;;;;6.46;100.00;99461.31;5180747;28;20025;-74
2024/03/03 02:53:22;;;;;;;40.65;18.25;;;;;;;6.42;100.00;99462.31;5185164;28;20629;-74
2024/03/03 02:55:52;;;;;;;44.83;19.42;;;;;;;6.44;100.00;99463.13;5187340;28;20303;-74
2024/03/03 02:58:22;;;;;;;42.13;20.30;;;;;;;6.59;100.00;99455.59;5189387;28;20254;-74
2024/03/03 03:00:53;;;;;;;47.08;21.90;;;;;;;6.68;100.00;99450.06;5179148;28;20037;-74
2024/03/03 03:03:23;;;;;;;48.35;23.13;;;;;;;6.87;100.00;99452.78;5181629;28;20383;-74
2024/03/03 03:05:53;;;;;;;49.63;21.90;;;;;;;7.01;100.00;99453.09;5187653;28;20030;-74
2024/03/03 03:08:24;;;;;;;54.85;23.38;;;;;;;7.04;100.00;99442.59;5184412;28;20033;-74
2024/03/03 03:10:54;;;;;;;53.88;23.80;;;;;;;7.16;100.00;99442.97;5183011;28;20025;-74
2024/03/03 03:13:25;;;;;;;52.42;21.10;;;;;;;7.15;100.00;99448.22;5183895;28;20040;-74
2024/03/03 03:15:55;;;;;;;58.13;21.80;;;;;;;6.85;100.00;99441.63;5186715;28;20026;-74
2024/03/03 03:18:25;;;;;;;50.03;21.73;;;;;;;6.80;100.00;99449.56;5196410;28;20014;-74
2024/03/03 03:20:56;;;;;;;49.10;22.42;;;;;;;6.98;100.00;99448.91;5194800;28;20542;-74
2024/03/03 03:23:26;;;;;;;47.63;21.42;;;;;;;6.93;100.00;99453.41;5196709;28;20475;-74
2024/03/03 03:25:56;;;;;;;51.63;22.52;;;;;;;6.98;100.00;99453.22;5188111;28;20091;-74
2024/03/03 03:28:27;;;;;;;47.97;22.00;;;;;;;6.95;100.00;99453.34;5189759;28;20154;-74
2024/03/03 03:30:57;;;;;;;51.28;23.13;;;;;;;7.07;100.00;99447.69;5178696;28;20685;-74
2024/03/03 03:33:28;;;;;;;52.15;23.45;;;;;;;6.96;100.00;99442.88;5195485;28;20420;-74
2024/03/03 03:35:58;;;;;;;48.47;22.90;;;;;;;6.83;100.00;99451.22;5187547;28;20180;-74
2024/03/03 03:38:28;;;;;;;43.55;21.38;;;;;;;6.60;100.00;99443.47;5189831;28;20056;-74
2024/03/03 03:40:59;;;;;;;46.10;22.17;;;;;;;6.73;100.00;99447.31;5193917;28;20028;-74
2024/03/03 03:43:30;;;;;;;44.03;20.45;;;;;;;6.57;100.00;99456.56;5180012;28;20041;-75
2024/03/03 03:46:00;;;;;;;48.78;22.05;;;;;;;6.46;100.00;99456.94;5196802;28;20029;-75
2024/03/03 03:48:31;;;;;;;43.53;20.77;;;;;;;6.46;100.00;99453.50;5194628;28;20552;-75
2024/03/03 03:51:01;;;;;;;47.55;21.10;;;;;;;6.47;100.00;99443.09;5196640;28;20021;-75
2024/03/03 03:53:32;;;;;;;47.63;21.42;;;;;;;6.28;100.00;99451.59;5197579;28;20512;-75
2024/03/03 03:56:02;;;;;;;49.97;21.02;;;;;;;6.28;100.00;99438.63;5193038;28;20021;-74
2024/03/03 03:58:33;;;;;;;50.63;21.67;;;;;;;6.30;100.00;99436.81;5191913;28;20017;-73
2024/03/03 04:01:03;;;;;;;45.00;20.58;;;;;;;6.25;100.00;99433.56;5195427;28;20025;-74
2024/03/03 04:03:33;;;;;;;42.58;19.60;;;;;;;6.23;100.00;99443.97;5196191;28;20449;-72
2024/03/03 04:06:04;;;;;;;46.55;21.15;;;;;;;6.11;100.00;99448.75;5197265;28;20025;-74
2024/03/03 04:08:34;;;;;;;42.03;19.70;;;;;;;6.12;100.00;99447.84;5194800;28;20033;-75
2024/03/03 04:11:04;;;;;;;43.38;20.15;;;;;;;5.96;100.00;99438.94;5187966;28;20132;-74
2024/03/03 04:13:35;;;;;;;49.13;21.02;;;;;;;5.95;100.00;99432.06;5191210;28;20493;-72
2024/03/03 04:16:06;;;;;;;44.03;20.30;;;;;;;6.04;100.00;99440.34;5195993;28;20076;-75
2024/03/03 04:18:37;;;;;;;49.80;22.00;;;;;;;6.04;100.00;99423.94;5196156;28;20025;-74
2024/03/03 04:21:07;;;;;;;45.63;20.52;;;;;;;6.21;100.00;99418.97;5196779;28;20032;-74
2024/03/03 04:23:38;;;;;;;43.75;21.02;;;;;;;6.18;100.00;99426.88;5195011;28;20028;-74
2024/03/03 04:26:09;;;;;;;45.08;20.83;;;;;;;6.19;100.00;99425.97;5196335;28;20040;-75
2024/03/03 04:28:39;;;;;;;43.17;19.98;;;;;;;6.08;100.00;99428.97;5190280;28;20034;-75
2024/03/03 04:31:09;;;;;;;38.25;18.02;;;;;;;6.09;100.00;99429.81;5193720;28;20029;-75
2024/03/03 04:33:40;;;;;;;42.38;18.23;;;;;;;5.96;100.00;99420.78;5196300;28;20049;-75
2024/03/03 04:36:14;;;;;;;39.17;18.75;;;;;;;6.13;100.00;99423.63;5195590;28;20030;-75
2024/03/03 04:38:44;;;;;;;40.83;20.02;;;;;;;6.15;100.00;99427.00;5195288;28;20021;-75
2024/03/03 04:41:17;;;;;;;42.88;19.35;;;;;;;6.31;100.00;99417.75;5197506;28;20021;-75
2024/03/03 04:43:47;;;;;;;39.45;19.25;;;;;;;6.28;100.00;99421.28;5196726;28;20499;-74
2024/03/03 04:46:17;;;;;;;41.50;18.95;;;;;;;6.17;100.00;99420.88;5190053;28;20040;-74
2024/03/03 04:48:48;;;;;;;46.65;18.85;;;;;;;6.18;100.00;99419.09;5197116;28;20021;-74
2024/03/03 04:51:18;;;;;;;40.92;19.05;;;;;;;6.17;100.00;99407.03;5197217;28;20032;-75
2024/03/03 04:53:48;;;;;;;36.83;17.83;;;;;;;6.16;100.00;99413.13;5196123;28;20368;-75
2024/03/03 04:56:19;;;;;;;40.80;18.83;;;;;;;6.09;100.00;99416.84;5193707;28;20025;-75
2024/03/03 04:58:49;;;;;;;38.63;18.33;;;;;;;6.07;100.00;99423.84;5195286;28;20038;-74
2024/03/03 05:01:19;;;;;;;36.63;18.15;;;;;;;5.97;100.00;99423.34;5196859;28;20023;-75
2024/03/03 05:03:50;;;;;;;37.75;18.67;;;;;;;5.94;100.00;99418.22;5186948;28;20121;-75
2024/03/03 05:06:20;;;;;;;43.85;19.45;;;;;;;6.00;100.00;99419.75;5196394;28;20053;-75
2024/03/03 05:08:50;;;;;;;41.38;19.67;;;;;;;5.92;100.00;99420.03;5187500;28;20504;-74
2024/03/03 05:11:22;;;;;;;42.05;18.35;;;;;;;5.98;100.00;99425.03;5195517;28;20025;-75
2024/03/03 05:13:52;;;;;;;40.13;18.73;;;;;;;5.96;100.00;99431.16;5195584;28;20445;-75
2024/03/03 05:16:23;;;;;;;42.85;19.98;;;;;;;6.05;100.00;99421.28;5196685;28;20025;-75
2024/03/03 05:18:54;;;;;;;42.85;20.40;;;;;;;6.13;100.00;99424.47;5195778;28;20108;-74
2024/03/03 05:21:24;;;;;;;50.97;22.60;;;;;;;6.25;100.00;99428.38;5192599;28;20112;-76
2024/03/03 05:23:54;;;;;;;45.35;21.05;;;;;;;6.28;100.00;99438.63;5190350;28;20124;-75
2024/03/03 05:26:26;;;;;;;42.70;20.45;;;;;;;6.24;100.00;99434.47;5183700;28;20022;-75
2024/03/03 05:28:58;;;;;;;40.63;20.77;;;;;;;6.15;100.00;99440.81;5183691;28;20021;-75
2024/03/03 05:31:34;;;;;;;42.92;20.40;;;;;;;6.08;100.00;99438.50;5188519;28;20540;-75
2024/03/03 05:34:05;;;;;;;46.13;20.33;;;;;;;6.11;100.00;99435.78;5186584;28;20045;-75
2024/03/03 05:36:35;;;;;;;43.22;20.00;;;;;;;6.11;100.00;99440.97;5191172;28;20025;-75
2024/03/03 05:39:05;;;;;;;38.80;19.60;;;;;;;6.21;100.00;99438.00;5157205;28;20026;-75
2024/03/03 05:41:37;;;;;;;46.28;20.98;;;;;;;6.05;100.00;99441.22;5187031;28;20284;-75
2024/03/03 05:44:08;;;;;;;42.53;19.90;;;;;;;6.04;100.00;99444.69;5189010;28;20419;-75
2024/03/03 05:46:39;;;;;;;41.20;19.83;;;;;;;5.98;100.00;99444.91;5190553;28;20090;-75
2024/03/03 05:49:09;;;;;;;36.20;19.15;;;;;;;6.13;100.00;99444.38;5192957;28;20112;-75
2024/03/03 05:51:39;;;;;;;44.95;20.65;;;;;;;5.92;100.00;99438.19;5190923;28;20032;-74
2024/03/03 05:54:09;;;;;;;45.85;20.52;;;;;;;5.90;100.00;99444.34;5191738;28;20026;-75
2024/03/03 05:56:40;;;;;;;42.05;19.40;;;;;;;5.85;100.00;99438.44;5195697;28;20029;-75
2024/03/03 05:59:13;;;;;;;43.65;20.30;;;;;;;5.82;100.00;99446.34;5186834;28;20582;-75
2024/03/03 06:01:48;;;;;;;44.97;19.90;;;;;;;5.79;100.00;99451.63;5189590;28;20029;-72
2024/03/03 06:04:18;;;;;;;33.72;15.10;;;;;;;5.79;100.00;99443.84;5189455;28;20028;-75
2024/03/03 06:06:49;;;;;;;41.42;20.40;;;;;;;5.83;100.00;99446.28;5189590;28;20033;-74
2024/03/03 06:09:19;;;;;;;45.95;21.52;;;;;;;5.91;100.00;99443.44;5192188;28;20028;-74
2024/03/03 06:11:49;;;;;;;43.15;20.95;;;;;;;6.06;100.00;99458.47;5189791;28;20025;-75
2024/03/03 06:14:20;;;;;;;42.05;20.80;;;;;;;6.17;100.00;99446.81;5186378;28;20037;-75
2024/03/03 06:16:50;;;;;;;48.40;21.60;;;;;;;6.22;100.00;99447.47;5186306;28;20026;-74
2024/03/03 06:19:20;;;;;;;42.42;21.20;;;;;;;6.22;100.00;99451.84;5192294;28;20028;-75
2024/03/03 06:21:51;;;;;;;42.40;20.80;;;;;;;6.27;100.00;99460.28;5191237;28;20136;-75
2024/03/03 06:24:21;;;;;;;44.65;21.73;;;;;;;6.33;100.00;99457.47;5193223;28;20479;-75
2024/03/03 06:26:51;;;;;;;45.92;21.65;;;;;;;6.30;100.00;99457.56;5193317;28;20088;-75
2024/03/03 06:29:22;;;;;;;45.78;21.55;;;;;;;6.41;100.00;99451.09;5190510;28;20112;-75
2024/03/03 06:31:52;;;;;;;42.95;22.08;;;;;;;6.58;100.00;99458.25;5184681;28;20502;-75
2024/03/03 06:34:23;;;;;;;48.90;21.10;;;;;;;6.67;100.00;99460.50;5192155;28;20017;-75
2024/03/03 06:36:53;;;;;;;42.67;20.58;;;;;;;6.62;100.00;99454.63;5193901;28;20052;-75
2024/03/03 06:39:23;;;;;;;46.15;21.40;;;;;;;6.52;100.00;99466.25;5191364;28;20018;-75
2024/03/03 06:41:54;;;;;;;45.60;21.90;;;;;;;6.55;100.00;99464.41;5191479;28;20033;-75
2024/03/03 06:44:24;;;;;;;40.13;19.02;;;;;;;6.52;100.00;99468.84;5194390;28;20021;-75
2024/03/03 06:46:54;;;;;;;34.22;16.88;;;;;;;6.15;100.00;99468.50;5174813;28;20390;-75
2024/03/03 06:49:25;;;;;;;34.03;17.42;;;;;;;6.22;100.00;99470.00;5190795;28;20022;-75
2024/03/03 06:51:55;;;;;;;32.60;16.25;;;;;;;5.89;100.00;99471.16;5196037;28;20052;-75
2024/03/03 06:54:27;;;;;;;32.45;16.33;;;;;;;5.98;100.00;99470.84;5197057;28;20498;-75
2024/03/03 06:56:57;;;;;;;32.63;16.80;;;;;;;6.17;100.00;99457.19;5196269;28;20446;-75
2024/03/03 06:59:27;;;;;;;42.80;19.27;;;;;;;6.19;100.00;99464.88;5194394;28;20018;-75
2024/03/03 07:01:58;;;;;;;39.28;17.50;;;;;;;6.31;100.00;99464.44;5197674;28;20037;-75
2024/03/03 07:04:28;;;;;;;35.05;17.38;;;;;;;6.68;100.00;99463.03;5198398;28;20029;-75
2024/03/03 07:06:58;;;;;;;38.63;18.58;;;;;;;6.85;100.00;99459.78;5189493;28;20018;-74
2024/03/03 07:09:29;;;;;;;34.58;17.45;;;;;;;6.75;100.00;99468.84;5194614;28;20153;-75
2024/03/03 07:12:01;;;;;;;34.85;17.55;;;;;;;6.77;100.00;99465.28;5187017;28;20037;-75
2024/03/03 07:14:32;;;;;;;37.53;17.77;;;;;;;6.91;100.00;99459.59;5185316;28;20108;-75
2024/03/03 07:17:02;;;;;;;35.95;17.67;;;;;;;6.79;100.00;99473.03;5184992;28;20048;-75
2024/03/03 07:19:33;;;;;;;32.85;17.27;;;;;;;6.92;100.00;99463.88;5185019;28;20021;-75
2024/03/03 07:22:03;;;;;;;35.95;18.02;;;;;;;6.98;100.00;99463.63;5183480;28;20091;-75
2024/03/03 07:24:33;;;;;;;35.97;19.25;;;;;;;7.09;100.00;99464.06;5183523;28;20176;-76
2024/03/03 07:27:04;;;;;;;34.97;17.83;;;;;;;7.21;100.00;99463.56;5191064;28;20250;-75
2024/03/03 07:29:35;;;;;;;33.08;17.45;;;;;;;7.28;100.00;99455.44;5197196;28;20124;-75
2024/03/03 07:32:05;;;;;;;37.92;18.33;;;;;;;7.47;100.00;99462.44;5194997;28;20394;-75
2024/03/03 07:34:36;;;;;;;37.58;18.50;;;;;;;8.27;100.00;99459.03;5197034;28;20032;-75
2024/03/03 07:37:06;;;;;;;35.90;18.08;;;;;;;9.47;96.57;99454.19;5195799;28;20037;-75
2024/03/03 07:39:36;;;;;;;34.03;17.98;;;;;;;10.95;98.21;99440.25;5196188;28;20120;-75
2024/03/03 07:42:08;;;;;;;31.85;16.80;;;;;;;11.24;84.27;99441.16;5188182;28;20033;-75
2024/03/03 07:44:38;;;;;;;29.45;14.85;;;;;;;11.75;86.89;99440.84;5190880;28;20057;-76
2024/03/03 07:47:08;;;;;;;26.50;14.80;;;;;;;13.35;79.55;99432.53;5190478;28;20068;-75
2024/03/03 07:49:41;;;;;;;28.50;14.32;;;;;;;12.73;76.59;99435.66;5190510;28;20038;-76
2024/03/03 07:52:11;;;;;;;25.90;14.00;;;;;;;14.13;75.96;99435.97;5185936;28;20039;-76
2024/03/03 07:54:42;;;;;;;24.10;14.57;;;;;;;14.63;70.68;99432.50;5186645;28;20025;-76
2024/03/03 07:57:12;;;;;;;27.10;14.95;;;;;;;14.31;71.18;99439.16;5184636;28;20037;-76
2024/03/03 07:59:43;;;;;;;26.98;16.00;;;;;;;14.71;72.41;99435.44;5185404;28;20048;-76
2024/03/03 08:02:13;;;;;;;25.88;15.00;;;;;;;15.53;70.60;99426.78;5184447;28;21305;-76
2024/03/03 08:04:43;;;;;;;25.23;14.68;;;;;;;15.50;70.31;99434.91;5186641;28;20105;-75
2024/03/03 08:07:14;;;;;;;26.52;14.70;;;;;;;15.11;68.55;99433.34;5183547;28;20030;-76
2024/03/03 08:09:44;;;;;;;26.90;15.60;;;;;;;15.74;70.03;99436.53;5186552;28;20120;-76
2024/03/03 08:12:14;;;;;;;26.85;14.68;;;;;;;16.41;68.28;99430.50;5180767;28;20158;-78
2024/03/03 08:14:45;;;;;;;28.27;15.23;;;;;;;15.44;69.17;99443.25;5178112;28;20044;-76
2024/03/03 08:17:15;;;;;;;27.00;14.73;;;;;;;15.95;69.28;99440.22;5190125;28;20309;-76
2024/03/03 08:19:45;;;;;;;26.55;15.73;;;;;;;15.97;69.48;99437.44;5187411;28;20025;-75
2024/03/03 08:22:16;;;;;;;26.67;16.35;;;;;;;16.16;69.59;99440.38;5190019;28;20492;-76
2024/03/03 08:24:46;;;;;;;27.73;16.15;;;;;;;16.41;65.82;99427.84;5188116;28;20868;-75
2024/03/03 08:27:18;;;;;;;28.50;17.13;;;;;;;15.25;70.26;99442.88;5186175;28;20040;-75
2024/03/03 08:29:49;;;;;;;28.65;16.98;;;;;;;15.74;70.93;99436.53;5182193;28;20022;-76
2024/03/03 08:32:20;;;;;;;30.33;17.17;;;;;;;15.90;69.58;99439.69;5180232;28;20025;-75
2024/03/03 08:34:50;;;;;;;31.52;18.08;;;;;;;15.62;70.83;99434.84;5181161;28;20052;-75
2024/03/03 08:37:21;;;;;;;29.35;17.67;;;;;;;15.28;72.82;99432.97;5192113;28;20138;-75
2024/03/03 08:39:51;;;;;;;29.83;16.80;;;;;;;16.70;69.32;99434.34;5197672;28;20025;-75
2024/03/03 08:42:21;;;;;;;29.85;17.30;;;;;;;17.09;69.20;99417.97;5186040;28;20109;-75
2024/03/03 08:44:52;;;;;;;28.23;16.30;;;;;;;17.11;66.51;99432.75;5190331;28;20036;-75
2024/03/03 08:47:23;;;;;;;31.25;17.58;;;;;;;16.81;68.75;99427.25;5185000;28;20022;-75
2024/03/03 08:49:54;;;;;;;29.60;16.75;;;;;;;15.72;72.59;99425.28;5187924;28;20071;-76
2024/03/03 08:52:26;;;;;;;28.42;17.73;;;;;;;16.65;69.38;99430.38;5193257;28;20471;-76
2024/03/03 08:54:56;;;;;;;29.30;17.42;;;;;;;15.35;74.68;99436.84;5181523;28;20470;-76
2024/03/03 08:57:26;;;;;;;29.80;17.20;;;;;;;16.34;70.78;99433.69;5164231;28;20064;-75
2024/03/03 08:59:57;;;;;;;31.05;17.38;;;;;;;15.96;72.56;99433.13;5175367;28;20127;-75
2024/03/03 09:02:28;;;;;;;26.90;17.85;;;;;;;15.92;72.54;99434.34;5176112;28;20049;-76
2024/03/03 09:05:00;;;;;;;30.42;17.52;;;;;;;16.13;71.68;99435.34;5174748;28;20476;-75
2024/03/03 09:07:30;;;;;;;29.65;17.58;;;;;;;15.71;74.10;99433.31;5173651;28;20137;-76
2024/03/03 09:10:01;;;;;;;28.90;17.05;;;;;;;16.48;71.68;99426.44;5184335;28;20109;-73
2024/03/03 09:12:31;;;;;;;25.48;16.15;;;;;;;15.95;73.93;99427.03;5190073;28;20029;-75
2024/03/03 09:15:01;;;;;;;30.63;17.38;;;;;;;16.21;71.82;99428.53;5193030;28;20030;-75
2024/03/03 09:17:32;;;;;;;31.30;18.65;;;;;;;14.27;79.48;99435.06;5185450;28;20026;-75
2024/03/03 09:20:05;;;;;;;31.23;18.08;;;;;;;13.95;80.35;99436.38;5188685;28;20030;-76
2024/03/03 09:22:36;;;;;;;33.50;18.48;;;;;;;13.39;81.92;99436.66;5184230;28;20121;-75
2024/03/03 09:25:07;;;;;;;39.55;19.63;;;;;;;13.00;84.95;99433.94;5191353;28;20033;-76
2024/03/03 09:27:37;;;;;;;40.03;19.98;;;;;;;12.79;87.02;99440.53;5191578;28;20563;-75
2024/03/03 09:30:10;;;;;;;33.85;19.50;;;;;;;13.20;85.46;99431.75;5164786;28;20102;-75
2024/03/03 09:32:41;;;;;;;33.83;18.92;;;;;;;12.89;86.22;99429.34;5183301;28;20033;-75
2024/03/03 09:35:11;;;;;;;35.58;20.13;;;;;;;13.19;85.98;99430.06;5189370;28;20036;-75
2024/03/03 09:37:41;;;;;;;34.30;19.30;;;;;;;13.43;84.34;99427.66;5187483;28;20043;-75
2024/03/03 09:40:16;;;;;;;34.75;19.23;;;;;;;13.20;84.98;99428.31;5182025;28;20033;-75
2024/03/03 09:42:46;;;;;;;37.67;20.50;;;;;;;13.27;84.67;99421.72;5192191;28;20391;-75
2024/03/03 09:45:20;;;;;;;33.90;20.63;;;;;;;13.29;85.99;99419.81;5185454;28;20029;-76
2024/03/03 09:47:50;;;;;;;40.08;21.45;;;;;;;12.95;87.92;99415.06;5186259;28;20191;-75
2024/03/03 09:50:22;;;;;;;38.95;21.35;;;;;;;12.88;87.14;99412.88;5189436;28;20116;-74
2024/03/03 09:52:53;;;;;;;36.55;21.30;;;;;;;12.45;89.84;99412.09;5196379;28;20453;-74
2024/03/03 09:55:25;;;;;;;38.95;20.90;;;;;;;12.61;89.71;99410.22;5191377;28;20491;-75
2024/03/03 09:57:55;;;;;;;42.08;22.35;;;;;;;12.64;89.25;99404.78;5189117;28;20128;-74
2024/03/03 10:00:26;;;;;;;37.63;22.25;;;;;;;12.52;90.09;99416.03;5191571;28;20112;-75
2024/03/03 10:02:56;;;;;;;40.67;21.95;;;;;;;12.40;89.93;99418.56;5183325;28;20021;-74
2024/03/03 10:05:30;;;;;;;41.15;21.63;;;;;;;12.61;89.75;99412.84;5185320;28;20072;-76
2024/03/03 10:08:02;;;;;;;37.72;21.95;;;;;;;12.63;90.40;99403.09;5175028;28;20544;-74
2024/03/03 10:10:35;;;;;;;36.75;21.70;;;;;;;12.30;89.94;99399.94;5179696;28;20096;-75
2024/03/03 10:13:07;;;;;;;38.38;22.38;;;;;;;12.57;89.68;99402.63;5185491;28;20017;-74
2024/03/03 10:15:38;;;;;;;39.55;21.88;;;;;;;12.50;89.99;99401.34;5183824;28;20567;-74
2024/03/03 10:18:08;;;;;;;35.08;19.65;;;;;;;12.71;89.13;99405.25;5184767;28;20404;-76
2024/03/03 10:20:40;;;;;;;32.50;19.75;;;;;;;12.43;90.85;99395.63;5188242;28;20025;-74
2024/03/03 10:23:24;;;;;;;33.28;19.13;;;;;;;12.44;90.95;99401.72;5194676;28;20401;-75
2024/03/03 10:25:55;;;;;;;32.47;18.90;;;;;;;12.46;90.17;99392.81;5187430;28;20116;-75
2024/03/03 10:28:27;;;;;;;36.00;18.85;;;;;;;12.61;90.12;99394.50;5167361;28;20047;-75
2024/03/03 10:31:15;;;;;;;35.00;19.55;;;;;;;12.47;91.38;99398.91;5189119;28;20227;-75
2024/03/03 10:33:53;;;;;;;32.83;18.60;;;;;;;12.53;91.42;99402.00;5185315;28;20037;-74
2024/03/03 10:36:24;;;;;;;31.33;18.55;;;;;;;12.25;91.46;99391.53;5186106;28;20311;-74
2024/03/03 10:38:54;;;;;;;31.52;18.40;;;;;;;12.33;91.04;99391.06;5193107;28;20022;-74
2024/03/03 10:41:25;;;;;;;34.22;18.83;;;;;;;12.39;90.61;99391.53;5189338;28;20025;-74
2024/03/03 10:43:55;;;;;;;31.65;18.02;;;;;;;12.27;92.10;99380.97;5192895;28;20048;-74
2024/03/03 10:46:26;;;;;;;33.28;17.85;;;;;;;12.15;92.29;99382.53;5192427;28;20017;-74
2024/03/03 10:48:57;;;;;;;31.83;18.58;;;;;;;11.99;93.73;99387.00;5188388;28;20037;-74
2024/03/03 10:51:28;;;;;;;35.53;18.00;;;;;;;12.12;92.25;99380.09;5174709;28;20735;-74
2024/03/03 10:54:00;;;;;;;32.20;18.00;;;;;;;12.26;93.05;99376.66;5193337;28;20176;-75
2024/03/03 10:56:30;;;;;;;30.75;16.83;;;;;;;12.33;93.11;99381.41;5193640;28;20053;-74
2024/03/03 10:59:02;;;;;;;31.13;17.92;;;;;;;12.35;92.83;99384.81;5189364;28;20407;-75
2024/03/03 11:01:33;;;;;;;31.83;17.98;;;;;;;12.23;94.56;99377.69;5186922;28;20113;-74
2024/03/03 11:04:06;;;;;;;32.30;19.27;;;;;;;12.38;93.95;99387.22;5190895;28;20041;-75
2024/03/03 11:06:37;;;;;;;34.33;18.77;;;;;;;12.32;93.77;99392.81;5181656;28;20460;-75
2024/03/03 11:09:10;;;;;;;34.75;18.98;;;;;;;12.34;90.81;99390.97;5184659;28;20124;-74
2024/03/03 11:11:51;;;;;;;35.08;19.13;;;;;;;12.42;88.50;99393.09;5185351;28;20041;-74
2024/03/03 11:14:24;;;;;;;33.00;18.48;;;;;;;12.64;91.52;99389.06;5181674;28;20040;-75
2024/03/03 11:16:57;;;;;;;31.77;19.55;;;;;;;12.66;89.34;99392.41;5180140;28;20431;-74
2024/03/03 11:19:35;;;;;;;36.53;19.52;;;;;;;12.67;91.28;99388.03;5181562;28;20264;-75
2024/03/03 11:22:11;;;;;;;32.05;18.73;;;;;;;12.84;91.21;99386.00;5174508;28;20029;-75
2024/03/03 11:24:46;;;;;;;37.05;19.15;;;;;;;12.89;89.09;99382.16;5176960;28;20041;-74
2024/03/03 11:27:24;;;;;;;31.25;19.25;;;;;;;12.98;91.01;99386.00;5175041;28;20045;-75
2024/03/03 11:29:56;;;;;;;32.38;18.88;;;;;;;12.93;87.58;99386.28;5172509;28;20229;-75
2024/03/03 11:32:27;;;;;;;31.75;18.70;;;;;;;12.84;88.19;99391.25;5176335;28;20033;-74
2024/03/03 11:34:58;;;;;;;31.98;18.05;;;;;;;12.69;90.56;99384.38;5172344;28;20037;-74